Time,TemperatureF,DewpointF,PressureIn,WindDirection,WindDirectionDegrees,WindSpeedMPH,WindSpeedGustMPH,Humidity,HourlyPrecipIn,Conditions,Clouds,dailyrainin,SoftwareType,DateUTC
2013-05-13 00:00:00,59.6,49.4,30.09,NNW,328,1.0,5.0,69,0.00,,,0.00,WeatherTracker,2013-05-13 05:00:00,
2013-05-13 00:10:00,59.1,49.3,30.09,NW,324,3.0,5.0,70,0.00,,,0.00,WeatherTracker,2013-05-13 05:10:00,
2013-05-13 00:20:00,58.7,49.7,30.09,NW,309,2.0,4.0,72,0.00,,,0.00,WeatherTracker,2013-05-13 05:20:00,
2013-05-13 00:25:00,58.4,49.4,30.09,NW,309,0.0,4.0,72,0.00,,,0.00,WeatherTracker,2013-05-13 05:25:00,
2013-05-13 00:35:00,58.1,50.2,30.10,NW,309,0.0,3.0,75,0.00,,,0.00,WeatherTracker,2013-05-13 05:35:00,
2013-05-13 00:45:00,57.5,50.3,30.09,NW,309,0.0,0.0,77,0.00,,,0.00,WeatherTracker,2013-05-13 05:45:00,
2013-05-13 00:55:00,57.0,49.9,30.10,NW,309,0.0,0.0,77,0.00,,,0.00,WeatherTracker,2013-05-13 05:55:00,
2013-05-13 01:05:00,56.1,49.3,30.10,NW,309,0.0,0.0,78,0.00,,,0.00,WeatherTracker,2013-05-13 06:05:00,
2013-05-13 01:10:00,55.6,48.8,30.10,NW,309,0.0,2.0,78,0.00,,,0.00,WeatherTracker,2013-05-13 06:10:00,
2013-05-13 01:15:00,55.1,48.7,30.11,NW,309,0.0,2.0,79,0.00,,,0.00,WeatherTracker,2013-05-13 06:15:00,
2013-05-13 01:25:00,54.6,48.6,30.11,NW,309,4.0,4.0,80,0.00,,,0.00,WeatherTracker,2013-05-13 06:25:00,
2013-05-13 01:30:00,54.5,48.1,30.11,NW,318,3.0,5.0,79,0.00,,,0.00,WeatherTracker,2013-05-13 06:30:00,
2013-05-13 01:35:00,54.6,48.6,30.11,NW,318,2.0,5.0,80,0.00,,,0.00,WeatherTracker,2013-05-13 06:35:00,
2013-05-13 01:40:00,54.5,48.5,30.11,NW,318,2.0,4.0,80,0.00,,,0.00,WeatherTracker,2013-05-13 06:40:00,
2013-05-13 01:50:00,54.2,48.2,30.11,NW,318,1.0,4.0,80,0.00,,,0.00,WeatherTracker,2013-05-13 06:50:00,
2013-05-13 02:00:00,54.0,48.6,30.12,NW,318,2.0,3.0,82,0.00,,,0.00,WeatherTracker,2013-05-13 07:00:00,
2013-05-13 02:05:00,53.8,47.8,30.11,NW,318,1.0,3.0,80,0.00,,,0.00,WeatherTracker,2013-05-13 07:05:00,
2013-05-13 02:15:00,53.3,47.6,30.11,NW,318,0.0,4.0,81,0.00,,,0.00,WeatherTracker,2013-05-13 07:15:00,
2013-05-13 02:20:00,53.1,47.4,30.11,NW,318,0.0,2.0,81,0.00,,,0.00,WeatherTracker,2013-05-13 07:20:00,
2013-05-13 02:25:00,52.9,47.2,30.11,NW,318,0.0,2.0,81,0.00,,,0.00,WeatherTracker,2013-05-13 07:25:00,
2013-05-13 02:30:00,52.7,47.0,30.12,NW,318,0.0,2.0,81,0.00,,,0.00,WeatherTracker,2013-05-13 07:30:00,
2013-05-13 02:40:00,52.4,47.1,30.11,NW,318,0.0,0.0,82,0.00,,,0.00,WeatherTracker,2013-05-13 07:40:00,
2013-05-13 02:45:00,52.1,46.8,30.12,NW,318,0.0,0.0,82,0.00,,,0.00,WeatherTracker,2013-05-13 07:45:00,
2013-05-13 02:50:00,51.7,46.7,30.12,NW,318,0.0,0.0,83,0.00,,,0.00,WeatherTracker,2013-05-13 07:50:00,
2013-05-13 02:55:00,51.5,46.5,30.12,NW,318,0.0,0.0,83,0.00,,,0.00,WeatherTracker,2013-05-13 07:55:00,
2013-05-13 03:05:00,51.2,46.5,30.12,NW,318,0.0,0.0,84,0.00,,,0.00,WeatherTracker,2013-05-13 08:05:00,
2013-05-13 03:10:00,50.8,46.1,30.12,NW,318,0.0,3.0,84,0.00,,,0.00,WeatherTracker,2013-05-13 08:10:00,
2013-05-13 03:20:00,50.3,46.0,30.13,NW,318,2.0,2.0,85,0.00,,,0.00,WeatherTracker,2013-05-13 08:20:00,
2013-05-13 03:30:00,50.2,46.2,30.13,NW,318,1.0,3.0,86,0.00,,,0.00,WeatherTracker,2013-05-13 08:30:00,
2013-05-13 03:40:00,50.1,46.1,30.13,NW,318,0.0,2.0,86,0.00,,,0.00,WeatherTracker,2013-05-13 08:40:00,
2013-05-13 03:45:00,50.0,46.0,30.13,NW,318,0.0,0.0,86,0.00,,,0.00,WeatherTracker,2013-05-13 08:45:00,
2013-05-13 03:50:00,49.9,45.9,30.13,NW,318,0.0,1.0,86,0.00,,,0.00,WeatherTracker,2013-05-13 08:50:00,
2013-05-13 04:00:00,49.6,45.6,30.13,NW,318,0.0,0.0,86,0.00,,,0.00,WeatherTracker,2013-05-13 09:00:00,
2013-05-13 04:05:00,49.4,45.4,30.13,NW,318,0.0,0.0,86,0.00,,,0.00,WeatherTracker,2013-05-13 09:05:00,
2013-05-13 04:15:00,48.9,44.6,30.13,NW,318,0.0,0.0,85,0.00,,,0.00,WeatherTracker,2013-05-13 09:15:00,
2013-05-13 04:20:00,48.7,44.7,30.13,NW,318,0.0,0.0,86,0.00,,,0.00,WeatherTracker,2013-05-13 09:20:00,
2013-05-13 04:25:00,48.5,44.5,30.13,NW,318,0.0,0.0,86,0.00,,,0.00,WeatherTracker,2013-05-13 09:25:00,
2013-05-13 04:35:00,48.1,44.1,30.14,NW,318,0.0,0.0,86,0.00,,,0.00,WeatherTracker,2013-05-13 09:35:00,
2013-05-13 04:40:00,48.0,44.3,30.14,NW,318,0.0,0.0,87,0.00,,,0.00,WeatherTracker,2013-05-13 09:40:00,
2013-05-13 04:50:00,47.8,44.7,30.14,NW,318,0.0,0.0,89,0.00,,,0.00,WeatherTracker,2013-05-13 09:50:00,
2013-05-13 04:55:00,47.5,44.4,30.14,NW,318,0.0,0.0,89,0.00,,,0.00,WeatherTracker,2013-05-13 09:55:00,
2013-05-13 05:00:00,47.3,44.2,30.14,NW,318,1.0,2.0,89,0.00,,,0.00,WeatherTracker,2013-05-13 10:00:00,
2013-05-13 05:05:00,47.1,44.3,30.15,NW,318,1.0,3.0,90,0.00,,,0.00,WeatherTracker,2013-05-13 10:05:00,
2013-05-13 05:15:00,46.9,44.1,30.15,NW,318,0.0,2.0,90,0.00,,,0.00,WeatherTracker,2013-05-13 10:15:00,
2013-05-13 05:25:00,46.6,43.8,30.15,NW,318,1.0,3.0,90,0.00,,,0.00,WeatherTracker,2013-05-13 10:25:00,
2013-05-13 05:30:00,46.5,43.7,30.16,NW,318,0.0,3.0,90,0.00,,,0.00,WeatherTracker,2013-05-13 10:30:00,
2013-05-13 05:35:00,46.4,43.6,30.16,NW,318,0.0,3.0,90,0.00,,,0.00,WeatherTracker,2013-05-13 10:35:00,
2013-05-13 05:45:00,46.6,44.1,30.16,NE,51,1.0,4.0,91,0.00,,,0.00,WeatherTracker,2013-05-13 10:45:00,
2013-05-13 05:50:00,46.8,44.3,30.16,NE,51,1.0,4.0,91,0.00,,,0.00,WeatherTracker,2013-05-13 10:50:00,
2013-05-13 05:55:00,46.9,44.1,30.17,NNE,22,0.0,3.0,90,0.00,,,0.00,WeatherTracker,2013-05-13 10:55:00,
2013-05-13 06:05:00,47.0,44.2,30.18,NE,54,0.0,2.0,90,0.00,,,0.00,WeatherTracker,2013-05-13 11:05:00,
2013-05-13 06:15:00,47.0,44.2,30.19,NE,54,3.0,3.0,90,0.00,,,0.00,WeatherTracker,2013-05-13 11:15:00,
2013-05-13 06:25:00,47.3,44.2,30.19,NE,54,1.0,4.0,89,0.00,,,0.00,WeatherTracker,2013-05-13 11:25:00,
2013-05-13 06:30:00,47.5,44.4,30.19,NE,54,1.0,4.0,89,0.00,,,0.00,WeatherTracker,2013-05-13 11:30:00,
2013-05-13 06:35:00,47.6,44.5,30.19,NE,54,1.0,3.0,89,0.00,,,0.00,WeatherTracker,2013-05-13 11:35:00,
2013-05-13 06:40:00,47.8,45.0,30.20,NE,54,1.0,3.0,90,0.00,,,0.00,WeatherTracker,2013-05-13 11:40:00,
2013-05-13 06:50:00,48.5,45.4,30.20,NNE,28,2.0,5.0,89,0.00,,,0.00,WeatherTracker,2013-05-13 11:50:00,
2013-05-13 07:00:00,49.4,46.0,30.20,NNE,26,4.0,4.0,88,0.00,,,0.00,WeatherTracker,2013-05-13 12:00:00,
2013-05-13 07:05:00,49.9,46.2,30.21,NNE,26,3.0,5.0,87,0.00,,,0.00,WeatherTracker,2013-05-13 12:05:00,
2013-05-13 07:10:00,50.4,46.4,30.21,NNE,27,3.0,5.0,86,0.00,,,0.00,WeatherTracker,2013-05-13 12:10:00,
2013-05-13 07:15:00,50.9,46.6,30.22,NNE,26,3.0,4.0,85,0.00,,,0.00,WeatherTracker,2013-05-13 12:15:00,
2013-05-13 07:25:00,51.7,46.7,30.22,NE,43,1.0,5.0,83,0.00,,,0.00,WeatherTracker,2013-05-13 12:25:00,
2013-05-13 07:30:00,52.2,46.5,30.22,NNE,32,4.0,6.0,81,0.00,,,0.00,WeatherTracker,2013-05-13 12:30:00,
2013-05-13 07:40:00,53.1,47.1,30.23,NNE,22,2.0,5.0,80,0.00,,,0.00,WeatherTracker,2013-05-13 12:40:00,
2013-05-13 07:50:00,54.1,47.1,30.23,ENE,57,4.0,6.0,77,0.00,,,0.00,WeatherTracker,2013-05-13 12:50:00,
2013-05-13 08:00:00,55.0,47.2,30.23,North,9,4.0,7.0,75,0.00,,,0.00,WeatherTracker,2013-05-13 13:00:00,
2013-05-13 08:05:00,55.5,47.3,30.24,NNE,17,2.0,7.0,74,0.00,,,0.00,WeatherTracker,2013-05-13 13:05:00,
2013-05-13 08:15:00,56.6,47.7,30.24,NNE,23,4.0,6.0,72,0.00,,,0.00,WeatherTracker,2013-05-13 13:15:00,
2013-05-13 08:20:00,57.2,47.5,30.24,NE,51,5.0,7.0,70,0.00,,,0.00,WeatherTracker,2013-05-13 13:20:00,
2013-05-13 08:30:00,58.2,47.7,30.24,ENE,59,5.0,8.0,68,0.00,,,0.00,WeatherTracker,2013-05-13 13:30:00,
2013-05-13 08:40:00,59.6,47.0,30.24,ENE,75,5.0,7.0,63,0.00,,,0.00,WeatherTracker,2013-05-13 13:40:00,
2013-05-13 08:45:00,59.8,45.9,30.25,NE,54,6.0,8.0,60,0.00,,,0.00,WeatherTracker,2013-05-13 13:45:00,
2013-05-13 08:50:00,60.7,47.2,30.24,NE,43,1.0,8.0,61,0.00,,,0.00,WeatherTracker,2013-05-13 13:50:00,
2013-05-13 08:55:00,61.3,47.7,30.25,North,9,6.0,8.0,61,0.00,,,0.00,WeatherTracker,2013-05-13 13:55:00,
2013-05-13 09:05:00,62.1,46.7,30.25,NE,42,0.0,10.0,57,0.00,,,0.00,WeatherTracker,2013-05-13 14:05:00,
2013-05-13 09:10:00,62.7,46.8,30.25,East,86,2.0,10.0,56,0.00,,,0.00,WeatherTracker,2013-05-13 14:10:00,
2013-05-13 09:20:00,63.7,46.2,30.25,NE,44,3.0,10.0,53,0.00,,,0.00,WeatherTracker,2013-05-13 14:20:00,
2013-05-13 09:25:00,64.2,46.7,30.25,NE,51,3.0,10.0,53,0.00,,,0.00,WeatherTracker,2013-05-13 14:25:00,
2013-05-13 09:30:00,64.8,46.8,30.26,NE,46,5.0,8.0,52,0.00,,,0.00,WeatherTracker,2013-05-13 14:30:00,
2013-05-13 09:35:00,64.9,44.7,30.26,East,94,5.0,10.0,48,0.00,,,0.00,WeatherTracker,2013-05-13 14:35:00,
2013-05-13 09:40:00,65.0,45.4,30.25,NNE,22,6.0,10.0,49,0.00,,,0.00,WeatherTracker,2013-05-13 14:40:00,
2013-05-13 09:45:00,65.0,44.3,30.25,NNE,25,5.0,8.0,47,0.00,,,0.00,WeatherTracker,2013-05-13 14:45:00,
2013-05-13 09:55:00,65.6,44.8,30.25,NE,37,6.0,11.0,47,0.00,,,0.00,WeatherTracker,2013-05-13 14:55:00,
2013-05-13 10:00:00,65.8,45.6,30.25,North,11,9.0,13.0,48,0.00,,,0.00,WeatherTracker,2013-05-13 15:00:00,
2013-05-13 10:05:00,65.9,45.6,30.25,NE,37,6.0,13.0,48,0.00,,,0.00,WeatherTracker,2013-05-13 15:05:00,
2013-05-13 10:15:00,66.7,44.7,30.25,NNE,27,7.0,12.0,45,0.00,,,0.00,WeatherTracker,2013-05-13 15:15:00,
2013-05-13 10:20:00,66.8,44.8,30.25,ENE,65,6.0,14.0,45,0.00,,,0.00,WeatherTracker,2013-05-13 15:20:00,
2013-05-13 10:25:00,67.0,43.8,30.25,North,5,8.0,14.0,43,0.00,,,0.00,WeatherTracker,2013-05-13 15:25:00,
2013-05-13 10:30:00,66.7,44.1,30.25,NNE,14,4.0,13.0,44,0.00,,,0.00,WeatherTracker,2013-05-13 15:30:00,
2013-05-13 10:35:00,66.8,43.0,30.25,ENE,57,7.0,13.0,42,0.00,,,0.00,WeatherTracker,2013-05-13 15:35:00,
2013-05-13 10:40:00,66.7,42.2,30.25,NNW,346,9.0,13.0,41,0.00,,,0.00,WeatherTracker,2013-05-13 15:40:00,
2013-05-13 10:45:00,67.2,43.3,30.25,NE,38,4.0,11.0,42,0.00,,,0.00,WeatherTracker,2013-05-13 15:45:00,
2013-05-13 10:55:00,67.6,41.8,30.25,North,5,3.0,16.0,39,0.00,,,0.00,WeatherTracker,2013-05-13 15:55:00,
2013-05-13 11:00:00,67.7,42.5,30.25,NNW,340,4.0,16.0,40,0.00,,,0.00,WeatherTracker,2013-05-13 16:00:00,
2013-05-13 11:10:00,68.4,43.1,30.25,NNE,26,7.0,9.0,40,0.00,,,0.00,WeatherTracker,2013-05-13 16:10:00,
2013-05-13 11:15:00,68.1,42.2,30.25,NE,47,6.0,16.0,39,0.00,,,0.00,WeatherTracker,2013-05-13 16:15:00,
2013-05-13 11:25:00,68.7,41.4,30.25,West,269,4.0,14.0,37,0.00,,,0.00,WeatherTracker,2013-05-13 16:25:00,
2013-05-13 11:30:00,68.8,42.8,30.25,NNE,19,3.0,11.0,39,0.00,,,0.00,WeatherTracker,2013-05-13 16:30:00,
2013-05-13 11:35:00,69.2,43.2,30.25,NE,44,5.0,11.0,39,0.00,,,0.00,WeatherTracker,2013-05-13 16:35:00,
2013-05-13 11:45:00,69.5,40.6,30.25,NNW,340,7.0,12.0,35,0.00,,,0.00,WeatherTracker,2013-05-13 16:45:00,
2013-05-13 11:50:00,69.7,40.1,30.24,North,360,4.0,12.0,34,0.00,,,0.00,WeatherTracker,2013-05-13 16:50:00,
2013-05-13 11:55:00,69.9,43.1,30.24,NE,53,5.0,12.0,38,0.00,,,0.00,WeatherTracker,2013-05-13 16:55:00,
2013-05-13 12:05:00,70.1,40.4,30.24,NE,45,5.0,14.0,34,0.00,,,0.00,WeatherTracker,2013-05-13 17:05:00,
2013-05-13 12:15:00,70.5,41.5,30.24,NW,319,8.0,18.0,35,0.00,,,0.00,WeatherTracker,2013-05-13 17:15:00,
2013-05-13 12:25:00,70.5,39.2,30.24,NW,325,4.0,18.0,32,0.00,,,0.00,WeatherTracker,2013-05-13 17:25:00,
2013-05-13 12:30:00,70.8,39.5,30.23,North,11,6.0,12.0,32,0.00,,,0.00,WeatherTracker,2013-05-13 17:30:00,
2013-05-13 12:35:00,70.8,40.3,30.23,NNE,23,8.0,14.0,33,0.00,,,0.00,WeatherTracker,2013-05-13 17:35:00,
2013-05-13 12:40:00,70.6,40.1,30.23,ENE,73,3.0,14.0,33,0.00,,,0.00,WeatherTracker,2013-05-13 17:40:00,
2013-05-13 12:45:00,71.3,41.5,30.23,NE,40,5.0,11.0,34,0.00,,,0.00,WeatherTracker,2013-05-13 17:45:00,
2013-05-13 12:55:00,72.1,40.6,30.23,NNW,348,6.0,15.0,32,0.00,,,0.00,WeatherTracker,2013-05-13 17:55:00,
2013-05-13 13:05:00,72.2,39.9,30.23,NNE,13,6.0,13.0,31,0.00,,,0.00,WeatherTracker,2013-05-13 18:05:00,
2013-05-13 13:15:00,72.3,42.3,30.23,NNW,344,4.0,15.0,34,0.00,,,0.00,WeatherTracker,2013-05-13 18:15:00,
2013-05-13 13:20:00,72.5,39.3,30.22,North,360,4.0,14.0,30,0.00,,,0.00,WeatherTracker,2013-05-13 18:20:00,
2013-05-13 13:30:00,72.8,41.2,30.22,NW,309,7.0,11.0,32,0.00,,,0.00,WeatherTracker,2013-05-13 18:30:00,
2013-05-13 13:35:00,72.8,42.0,30.21,NNW,344,5.0,12.0,33,0.00,,,0.00,WeatherTracker,2013-05-13 18:35:00,
2013-05-13 13:45:00,72.8,40.4,30.21,NNE,20,7.0,13.0,31,0.00,,,0.00,WeatherTracker,2013-05-13 18:45:00,
2013-05-13 13:55:00,72.4,39.2,30.20,NNW,342,6.0,14.0,30,0.00,,,0.00,WeatherTracker,2013-05-13 18:55:00,
2013-05-13 14:00:00,72.4,40.0,30.21,North,9,6.0,14.0,31,0.00,,,0.00,WeatherTracker,2013-05-13 19:00:00,
2013-05-13 14:05:00,72.9,41.3,30.20,East,82,5.0,14.0,32,0.00,,,0.00,WeatherTracker,2013-05-13 19:05:00,
2013-05-13 14:10:00,73.6,41.1,30.20,ENE,59,10.0,12.0,31,0.00,,,0.00,WeatherTracker,2013-05-13 19:10:00,
2013-05-13 14:15:00,73.2,40.7,30.20,North,5,9.0,13.0,31,0.00,,,0.00,WeatherTracker,2013-05-13 19:15:00,
2013-05-13 14:20:00,73.9,39.6,30.20,North,11,6.0,13.0,29,0.00,,,0.00,WeatherTracker,2013-05-13 19:20:00,
2013-05-13 14:25:00,74.2,40.8,30.19,NNE,17,2.0,11.0,30,0.00,,,0.00,WeatherTracker,2013-05-13 19:25:00,
2013-05-13 14:35:00,74.0,41.4,30.18,North,5,4.0,14.0,31,0.00,,,0.00,WeatherTracker,2013-05-13 19:35:00,
2013-05-13 14:45:00,74.4,40.1,30.18,NE,45,2.0,11.0,29,0.00,,,0.00,WeatherTracker,2013-05-13 19:45:00,
2013-05-13 14:50:00,74.5,41.0,30.18,NE,42,6.0,11.0,30,0.00,,,0.00,WeatherTracker,2013-05-13 19:50:00,
2013-05-13 14:55:00,74.3,40.8,30.18,North,355,12.0,14.0,30,0.00,,,0.00,WeatherTracker,2013-05-13 19:55:00,
2013-05-13 15:05:00,74.3,40.8,30.18,NNE,13,7.0,12.0,30,0.00,,,0.00,WeatherTracker,2013-05-13 20:05:00,
2013-05-13 15:10:00,74.4,41.8,30.18,NNW,347,7.0,11.0,31,0.00,,,0.00,WeatherTracker,2013-05-13 20:10:00,
2013-05-13 15:20:00,74.4,40.1,30.18,WNW,288,3.0,14.0,29,0.00,,,0.00,WeatherTracker,2013-05-13 20:20:00,
2013-05-13 15:25:00,74.4,40.9,30.18,WNW,300,4.0,13.0,30,0.00,,,0.00,WeatherTracker,2013-05-13 20:25:00,
2013-05-13 15:35:00,74.9,43.0,30.18,NW,320,7.0,12.0,32,0.00,,,0.00,WeatherTracker,2013-05-13 20:35:00,
2013-05-13 15:45:00,75.0,44.7,30.17,North,10,5.0,11.0,34,0.00,,,0.00,WeatherTracker,2013-05-13 20:45:00,
2013-05-13 15:50:00,74.9,43.8,30.17,NNW,340,5.0,12.0,33,0.00,,,0.00,WeatherTracker,2013-05-13 20:50:00,
2013-05-13 15:55:00,75.0,43.1,30.17,NW,323,5.0,12.0,32,0.00,,,0.00,WeatherTracker,2013-05-13 20:55:00,
2013-05-13 16:05:00,75.2,43.3,30.17,North,355,9.0,13.0,32,0.00,,,0.00,WeatherTracker,2013-05-13 21:05:00,
2013-05-13 16:10:00,75.1,42.4,30.16,NNW,339,5.0,13.0,31,0.00,,,0.00,WeatherTracker,2013-05-13 21:10:00,
2013-05-13 16:15:00,75.0,43.1,30.17,NNW,342,5.0,12.0,32,0.00,,,0.00,WeatherTracker,2013-05-13 21:15:00,
2013-05-13 16:20:00,75.0,44.7,30.16,NNW,348,10.0,16.0,34,0.00,,,0.00,WeatherTracker,2013-05-13 21:20:00,
2013-05-13 16:25:00,75.0,43.9,30.16,North,360,7.0,16.0,33,0.00,,,0.00,WeatherTracker,2013-05-13 21:25:00,
2013-05-13 16:30:00,74.9,43.8,30.16,NNE,19,7.0,15.0,33,0.00,,,0.00,WeatherTracker,2013-05-13 21:30:00,
2013-05-13 16:40:00,74.9,44.6,30.17,NNE,24,10.0,15.0,34,0.00,,,0.00,WeatherTracker,2013-05-13 21:40:00,
2013-05-13 16:45:00,74.7,42.9,30.16,NW,317,8.0,15.0,32,0.00,,,0.00,WeatherTracker,2013-05-13 21:45:00,
2013-05-13 16:55:00,74.1,43.1,30.16,North,355,10.0,17.0,33,0.00,,,0.00,WeatherTracker,2013-05-13 21:55:00,
2013-05-13 17:00:00,74.0,43.8,30.16,NNE,20,13.0,17.0,34,0.00,,,0.00,WeatherTracker,2013-05-13 22:00:00,
2013-05-13 17:10:00,74.1,44.7,30.16,NNW,348,10.0,13.0,35,0.00,,,0.00,WeatherTracker,2013-05-13 22:10:00,
2013-05-13 17:20:00,74.1,44.7,30.16,NNW,333,9.0,16.0,35,0.00,,,0.00,WeatherTracker,2013-05-13 22:20:00,
2013-05-13 17:25:00,74.0,45.3,30.16,North,355,7.0,16.0,36,0.00,,,0.00,WeatherTracker,2013-05-13 22:25:00,
2013-05-13 17:35:00,73.7,46.5,30.16,North,360,4.0,13.0,38,0.00,,,0.00,WeatherTracker,2013-05-13 22:35:00,
2013-05-13 17:45:00,73.7,45.1,30.16,NNW,345,5.0,13.0,36,0.00,,,0.00,WeatherTracker,2013-05-13 22:45:00,
2013-05-13 17:55:00,73.6,46.4,30.16,North,351,6.0,11.0,38,0.00,,,0.00,WeatherTracker,2013-05-13 22:55:00,
2013-05-13 18:05:00,73.3,45.4,30.16,North,5,4.0,11.0,37,0.00,,,0.00,WeatherTracker,2013-05-13 23:05:00,
2013-05-13 18:15:00,73.1,46.0,30.16,North,351,4.0,10.0,38,0.00,,,0.00,WeatherTracker,2013-05-13 23:15:00,
2013-05-13 18:20:00,73.1,46.7,30.16,North,9,6.0,9.0,39,0.00,,,0.00,WeatherTracker,2013-05-13 23:20:00,
2013-05-13 18:25:00,73.0,45.9,30.16,North,360,5.0,8.0,38,0.00,,,0.00,WeatherTracker,2013-05-13 23:25:00,
2013-05-13 18:35:00,72.6,46.2,30.16,North,355,3.0,9.0,39,0.00,,,0.00,WeatherTracker,2013-05-13 23:35:00,
2013-05-13 18:40:00,72.3,46.6,30.16,North,349,4.0,9.0,40,0.00,,,0.00,WeatherTracker,2013-05-13 23:40:00,
2013-05-13 18:45:00,72.0,47.0,30.16,North,355,3.0,8.0,41,0.00,,,0.00,WeatherTracker,2013-05-13 23:45:00,
2013-05-13 18:50:00,71.7,47.4,30.16,North,355,2.0,7.0,42,0.00,,,0.00,WeatherTracker,2013-05-13 23:50:00,
2013-05-13 19:00:00,71.5,47.2,30.16,North,355,3.0,4.0,42,0.00,,,0.00,WeatherTracker,2013-05-14 00:00:00,
2013-05-13 19:05:00,71.3,47.6,30.16,North,355,2.0,4.0,43,0.00,,,0.00,WeatherTracker,2013-05-14 00:05:00,
2013-05-13 19:10:00,71.0,47.4,30.16,North,355,2.0,4.0,43,0.00,,,0.00,WeatherTracker,2013-05-14 00:10:00,
2013-05-13 19:15:00,70.6,48.8,30.16,North,355,0.0,3.0,46,0.00,,,0.00,WeatherTracker,2013-05-14 00:15:00,
2013-05-13 19:25:00,69.5,47.8,30.17,North,355,1.0,3.0,46,0.00,,,0.00,WeatherTracker,2013-05-14 00:25:00,
2013-05-13 19:30:00,68.8,47.7,30.17,North,355,1.0,3.0,47,0.00,,,0.00,WeatherTracker,2013-05-14 00:30:00,
2013-05-13 19:35:00,68.2,48.8,30.17,North,355,0.0,2.0,50,0.00,,,0.00,WeatherTracker,2013-05-14 00:35:00,
2013-05-13 19:40:00,67.9,49.6,30.17,North,355,0.0,1.0,52,0.00,,,0.00,WeatherTracker,2013-05-14 00:40:00,
2013-05-13 19:45:00,67.5,49.2,30.17,North,355,0.0,0.0,52,0.00,,,0.00,WeatherTracker,2013-05-14 00:45:00,
2013-05-13 19:55:00,66.5,48.8,30.17,North,355,0.0,0.0,53,0.00,,,0.00,WeatherTracker,2013-05-14 00:55:00,
2013-05-13 20:05:00,65.0,47.4,30.17,North,355,0.0,0.0,53,0.00,,,0.00,WeatherTracker,2013-05-14 01:05:00,
2013-05-13 20:10:00,64.6,47.6,30.17,North,355,0.0,0.0,54,0.00,,,0.00,WeatherTracker,2013-05-14 01:10:00,
2013-05-13 20:20:00,63.7,48.2,30.17,North,355,0.0,0.0,57,0.00,,,0.00,WeatherTracker,2013-05-14 01:20:00,
2013-05-13 20:25:00,63.4,47.4,30.17,North,355,0.0,0.0,56,0.00,,,0.00,WeatherTracker,2013-05-14 01:25:00,
2013-05-13 20:30:00,63.2,46.8,30.17,North,355,0.0,0.0,55,0.00,,,0.00,WeatherTracker,2013-05-14 01:30:00,
2013-05-13 20:40:00,62.7,47.7,30.17,North,355,0.0,0.0,58,0.00,,,0.00,WeatherTracker,2013-05-14 01:40:00,
2013-05-13 20:45:00,62.3,47.8,30.17,North,355,0.0,0.0,59,0.00,,,0.00,WeatherTracker,2013-05-14 01:45:00,
2013-05-13 20:55:00,61.7,47.7,30.18,North,355,0.0,0.0,60,0.00,,,0.00,WeatherTracker,2013-05-14 01:55:00,
2013-05-13 21:00:00,61.3,47.7,30.17,North,355,0.0,0.0,61,0.00,,,0.00,WeatherTracker,2013-05-14 02:00:00,
2013-05-13 21:10:00,60.6,47.5,30.18,North,355,0.0,0.0,62,0.00,,,0.00,WeatherTracker,2013-05-14 02:10:00,
2013-05-13 21:15:00,60.2,47.1,30.18,North,355,0.0,0.0,62,0.00,,,0.00,WeatherTracker,2013-05-14 02:15:00,
2013-05-13 21:20:00,59.9,46.8,30.18,North,355,0.0,0.0,62,0.00,,,0.00,WeatherTracker,2013-05-14 02:20:00,
2013-05-13 21:30:00,59.2,48.2,30.18,North,355,0.0,0.0,67,0.00,,,0.00,WeatherTracker,2013-05-14 02:30:00,
2013-05-13 21:35:00,58.8,47.9,30.19,North,355,0.0,0.0,67,0.00,,,0.00,WeatherTracker,2013-05-14 02:35:00,
2013-05-13 21:40:00,58.6,48.5,30.19,North,355,0.0,0.0,69,0.00,,,0.00,WeatherTracker,2013-05-14 02:40:00,
2013-05-13 21:50:00,58.3,49.3,30.19,North,355,0.0,0.0,72,0.00,,,0.00,WeatherTracker,2013-05-14 02:50:00,
2013-05-13 21:55:00,58.1,48.7,30.19,North,355,0.0,0.0,71,0.00,,,0.00,WeatherTracker,2013-05-14 02:55:00,
2013-05-13 22:05:00,57.8,47.3,30.19,North,355,0.0,0.0,68,0.00,,,0.00,WeatherTracker,2013-05-14 03:05:00,
2013-05-13 22:10:00,57.6,47.5,30.20,North,355,0.0,0.0,69,0.00,,,0.00,WeatherTracker,2013-05-14 03:10:00,
2013-05-13 22:20:00,57.1,47.0,30.20,North,355,0.0,0.0,69,0.00,,,0.00,WeatherTracker,2013-05-14 03:20:00,
2013-05-13 22:25:00,56.8,46.7,30.19,North,355,0.0,0.0,69,0.00,,,0.00,WeatherTracker,2013-05-14 03:25:00,
2013-05-13 22:30:00,56.5,46.5,30.19,North,355,0.0,0.0,69,0.00,,,0.00,WeatherTracker,2013-05-14 03:30:00,
2013-05-13 22:35:00,56.2,46.2,30.19,North,355,0.0,0.0,69,0.00,,,0.00,WeatherTracker,2013-05-14 03:35:00,
2013-05-13 22:40:00,55.9,45.9,30.19,North,355,0.0,0.0,69,0.00,,,0.00,WeatherTracker,2013-05-14 03:40:00,
2013-05-13 22:50:00,55.6,46.3,30.19,North,355,0.0,0.0,71,0.00,,,0.00,WeatherTracker,2013-05-14 03:50:00,
2013-05-13 23:00:00,55.4,46.9,30.19,North,355,0.0,0.0,73,0.00,,,0.00,WeatherTracker,2013-05-14 04:00:00,
2013-05-13 23:05:00,55.4,47.3,30.19,North,355,0.0,0.0,74,0.00,,,0.00,WeatherTracker,2013-05-14 04:05:00,
2013-05-13 23:10:00,55.4,46.5,30.19,North,355,0.0,0.0,72,0.00,,,0.00,WeatherTracker,2013-05-14 04:10:00,
2013-05-13 23:15:00,55.4,46.9,30.19,North,355,0.0,0.0,73,0.00,,,0.00,WeatherTracker,2013-05-14 04:15:00,
2013-05-13 23:25:00,55.6,48.8,30.19,North,355,0.0,0.0,78,0.00,,,0.00,WeatherTracker,2013-05-14 04:25:00,
2013-05-13 23:30:00,55.6,48.8,30.19,North,355,0.0,0.0,78,0.00,,,0.00,WeatherTracker,2013-05-14 04:30:00,
2013-05-13 23:35:00,55.6,49.2,30.19,North,355,0.0,0.0,79,0.00,,,0.00,WeatherTracker,2013-05-14 04:35:00,
2013-05-13 23:40:00,55.6,49.2,30.19,North,355,0.0,0.0,79,0.00,,,0.00,WeatherTracker,2013-05-14 04:40:00,
2013-05-13 23:50:00,55.4,48.7,30.19,North,355,0.0,0.0,78,0.00,,,0.00,WeatherTracker,2013-05-14 04:50:00,
2013-05-13 23:55:00,55.3,48.2,30.20,North,355,0.0,0.0,77,0.00,,,0.00,WeatherTracker,2013-05-14 04:55:00,